Time;durP1;ratioP1;P1;durP2;ratioP2;P2;SDS_P1;SDS_P2;PMS_P1;PMS_P2;Temp;Humidity;BMP_temperature;BMP_pressure;BME280_temperature;BME280_humidity;BME280_pressure;Samples;Min_cycle;Max_cycle;Signal;HPM_P1;HPM_P2
2021/07/04 07:02:09;;;;;;;3.53;3.17;;;;;;;26.00;51.85;98369.41;5159300;23;20574;-73
2021/07/04 07:04:35;;;;;;;3.05;2.70;;;;;;;28.11;45.55;98378.44;4985881;28;20125;-73
2021/07/04 07:07:00;;;;;;;3.30;2.42;;;;;;;28.83;43.27;98385.56;4985580;28;20057;-73
2021/07/04 07:09:26;;;;;;;3.30;2.70;;;;;;;27.73;45.91;98382.94;4985890;28;20389;-73
2021/07/04 07:11:51;;;;;;;5.90;3.08;;;;;;;27.04;46.74;98385.81;4984467;28;20038;-73
2021/07/04 07:14:16;;;;;;;2.88;2.67;;;;;;;28.24;44.86;98375.38;4985509;28;20045;-73
2021/07/04 07:16:42;;;;;;;3.05;2.40;;;;;;;28.94;43.00;98382.66;5042188;22;20050;-72
2021/07/04 07:19:07;;;;;;;2.80;2.60;;;;;;;29.24;41.57;98380.56;4982978;28;20553;-74
2021/07/04 07:21:32;;;;;;;2.67;2.45;;;;;;;27.66;46.16;98380.00;4983175;28;20950;-73
2021/07/04 07:23:58;;;;;;;2.90;2.50;;;;;;;29.82;41.42;98371.94;4982938;28;20095;-74
2021/07/04 07:26:23;;;;;;;2.88;2.60;;;;;;;29.95;39.71;98369.66;4977038;28;20104;-74
2021/07/04 07:28:48;;;;;;;3.42;2.47;;;;;;;31.58;36.74;98373.63;4972040;28;20126;-74
2021/07/04 07:31:14;;;;;;;3.55;2.70;;;;;;;29.70;39.73;98365.22;4972084;28;20030;-72
2021/07/04 07:33:39;;;;;;;6.72;3.25;;;;;;;28.26;43.23;98368.94;4971816;28;20031;-72
2021/07/04 07:36:04;;;;;;;4.53;2.75;;;;;;;25.92;48.53;98376.38;4971805;28;20074;-72
2021/07/04 07:38:30;;;;;;;3.92;2.83;;;;;;;26.26;47.35;98371.63;4971964;28;20030;-72
2021/07/04 07:40:55;;;;;;;3.05;2.75;;;;;;;25.63;48.92;98371.78;4971988;28;20023;-71
2021/07/04 07:43:21;;;;;;;3.72;3.00;;;;;;;26.11;48.16;98371.16;4971804;28;20034;-71
2021/07/04 07:45:46;;;;;;;3.58;3.03;;;;;;;25.50;50.77;98366.69;4971649;28;20533;-72
2021/07/04 07:48:12;;;;;;;5.20;2.90;;;;;;;25.14;51.36;98357.38;4972047;28;20027;-73
2021/07/04 07:50:38;;;;;;;4.78;2.67;;;;;;;26.77;47.66;98347.47;4971513;28;20035;-71
2021/07/04 07:53:03;;;;;;;3.58;2.55;;;;;;;30.68;37.98;98336.97;4971821;28;20030;-72
2021/07/04 07:55:28;;;;;;;7.03;3.13;;;;;;;31.71;36.27;98326.50;4975510;28;20030;-72
2021/07/04 07:57:54;;;;;;;2.90;2.70;;;;;;;31.16;36.82;98326.47;4975536;28;20506;-73
2021/07/04 08:00:20;;;;;;;3.30;3.00;;;;;;;31.45;37.75;98318.72;4975521;28;20036;-73
2021/07/04 08:02:45;;;;;;;4.00;2.50;;;;;;;32.72;34.87;98311.41;4974729;28;20034;-72
2021/07/04 08:05:11;;;;;;;5.00;2.75;;;;;;;33.18;33.11;98304.16;4975592;28;20033;-71
2021/07/04 08:07:37;;;;;;;3.05;2.80;;;;;;;33.23;33.22;98317.03;4975559;28;20050;-72
2021/07/04 08:10:06;;;;;;;4.18;2.90;;;;;;;29.49;39.87;98319.31;4970356;28;20031;-73
2021/07/04 08:12:31;;;;;;;;;;;;;;;31.34;37.12;98318.25;4974455;28;20077;-72
2021/07/04 08:14:56;;;;;;;2.60;2.40;;;;;;;31.72;35.87;98313.97;4974283;28;19953;-72
2021/07/04 08:17:22;;;;;;;5.82;2.38;;;;;;;29.28;40.01;98317.03;4974959;28;20781;-73
2021/07/04 08:19:47;;;;;;;3.22;2.63;;;;;;;29.95;39.23;98321.59;4975434;28;20030;-73
2021/07/04 08:22:13;;;;;;;3.78;2.50;;;;;;;31.08;36.25;98321.09;4975146;28;20031;-72
2021/07/04 08:24:38;;;;;;;3.33;2.60;;;;;;;32.03;34.88;98307.81;4975088;28;20054;-72
2021/07/04 08:27:04;;;;;;;4.75;2.55;;;;;;;32.05;34.45;98311.16;4975215;28;20058;-72
2021/07/04 08:29:29;;;;;;;3.00;2.53;;;;;;;30.11;39.83;98304.75;4975185;28;20105;-72
2021/07/04 08:31:55;;;;;;;2.78;2.35;;;;;;;32.11;36.52;98300.56;4975122;28;20061;-73
2021/07/04 08:34:20;;;;;;;3.08;2.42;;;;;;;34.24;32.21;98294.03;4974501;28;20026;-72
2021/07/04 08:36:46;;;;;;;5.80;2.67;;;;;;;34.63;30.36;98295.47;4981079;28;20087;-73
2021/07/04 08:39:11;;;;;;;2.42;2.30;;;;;;;33.26;31.82;98292.47;4974922;28;20069;-73
2021/07/04 08:41:36;;;;;;;2.00;1.90;;;;;;;33.60;30.70;98293.81;4974975;28;20032;-73
2021/07/04 08:44:07;;;;;;;2.13;1.83;;;;;;;32.64;32.87;98298.06;4974888;28;20083;-72
2021/07/04 08:46:40;;;;;;;2.50;2.30;;;;;;;31.14;34.92;98309.72;4974647;28;20026;-72
2021/07/04 08:49:06;;;;;;;2.45;2.10;;;;;;;33.18;32.57;98297.94;4975113;28;20029;-72
2021/07/04 08:51:31;;;;;;;2.22;2.03;;;;;;;33.05;32.72;98303.94;4974734;28;20030;-72
2021/07/04 08:53:57;;;;;;;2.55;1.92;;;;;;;33.14;30.97;98307.38;4974977;28;20054;-72
2021/07/04 08:56:22;;;;;;;3.30;1.92;;;;;;;32.64;33.13;98308.81;4974521;28;20701;-71
2021/07/04 08:58:48;;;;;;;2.22;2.00;;;;;;;32.37;32.35;98305.63;4974772;28;20034;-71
2021/07/04 09:01:14;;;;;;;1.80;1.70;;;;;;;32.26;33.79;98303.34;4974561;28;20030;-73
2021/07/04 09:03:46;;;;;;;2.47;2.28;;;;;;;33.47;31.78;98303.38;4974630;28;20113;-73
2021/07/04 09:06:13;;;;;;;2.08;1.90;;;;;;;34.24;30.43;98294.84;4973531;28;20026;-73
2021/07/04 09:08:40;;;;;;;3.78;2.20;;;;;;;31.89;33.57;98302.19;4974480;28;20031;-73
2021/07/04 09:11:18;;;;;;;2.60;2.40;;;;;;;28.42;39.02;98310.50;4973227;28;20022;-72
2021/07/04 09:13:48;;;;;;;3.78;2.33;;;;;;;27.95;42.66;98306.28;4974326;28;20043;-72
2021/07/04 09:16:20;;;;;;;5.18;2.45;;;;;;;27.02;44.44;98307.97;4974077;28;20161;-72
2021/07/04 09:19:09;;;;;;;2.85;2.53;;;;;;;25.82;47.36;98313.50;4974288;28;20077;-71
2021/07/04 09:21:35;;;;;;;;;;;;;;;25.81;47.84;98306.47;4974823;28;20092;-73
2021/07/04 09:24:00;;;;;;;3.03;2.38;;;;;;;25.61;46.86;98299.41;4974531;28;20435;-71
2021/07/04 09:26:43;;;;;;;3.08;2.83;;;;;;;24.56;49.16;98306.56;4974349;28;20109;-70
2021/07/04 09:29:10;;;;;;;3.22;2.92;;;;;;;25.24;48.63;98302.63;4974020;28;20109;-72
2021/07/04 09:31:37;;;;;;;3.75;2.83;;;;;;;25.54;48.52;98300.94;4974066;28;20031;-74
2021/07/04 09:34:06;;;;;;;2.72;2.53;;;;;;;25.52;48.17;98301.03;4973849;28;20039;-73
2021/07/04 09:36:32;;;;;;;4.45;2.63;;;;;;;25.31;47.96;98297.59;4973922;28;20713;-74
2021/07/04 09:38:57;;;;;;;2.45;2.25;;;;;;;26.35;46.20;98299.91;4973966;28;20034;-72
2021/07/04 09:41:23;;;;;;;6.65;6.03;;;;;;;27.07;43.90;98285.28;4973854;28;20030;-72
2021/07/04 09:43:48;;;;;;;3.25;2.95;;;;;;;27.00;43.45;98283.38;4974252;28;20034;-74
2021/07/04 09:46:15;;;;;;;4.88;2.53;;;;;;;26.94;43.99;98279.47;4973568;28;21141;-73
2021/07/04 09:48:49;;;;;;;2.35;1.88;;;;;;;26.90;44.88;98273.59;4973631;28;20022;-73
2021/07/04 09:51:27;;;;;;;2.72;2.50;;;;;;;28.59;41.88;98257.34;4974075;28;20180;-73
2021/07/04 09:53:57;;;;;;;2.70;2.50;;;;;;;29.96;38.06;98247.59;4973894;28;20492;-73
2021/07/04 09:56:25;;;;;;;2.50;2.33;;;;;;;31.53;35.15;98242.06;4973595;28;20027;-73
2021/07/04 09:59:01;;;;;;;3.38;2.42;;;;;;;33.43;32.17;98242.97;4973515;28;20070;-73
2021/07/04 10:01:45;;;;;;;2.33;2.22;;;;;;;33.80;31.12;98238.47;4973678;28;20032;-74
2021/07/04 10:04:28;;;;;;;2.85;2.40;;;;;;;32.40;32.42;98229.34;4973444;28;20042;-72
2021/07/04 10:06:54;;;;;;;2.72;2.40;;;;;;;32.57;32.34;98220.13;4973158;28;20026;-72
2021/07/04 10:09:21;;;;;;;1.90;1.80;;;;;;;33.50;32.09;98226.91;4973327;28;20023;-73
2021/07/04 10:11:48;;;;;;;1.98;1.88;;;;;;;34.30;29.64;98217.91;4973318;28;20517;-74
2021/07/04 10:14:14;;;;;;;2.00;1.80;;;;;;;33.98;30.67;98214.69;4971957;28;20034;-74
2021/07/04 10:16:44;;;;;;;2.80;1.98;;;;;;;31.78;32.97;98218.66;4956178;28;20054;-76
2021/07/04 10:19:13;;;;;;;2.30;2.10;;;;;;;32.74;33.12;98210.94;4978327;28;20030;-79
2021/07/04 10:21:39;;;;;;;2.80;2.10;;;;;;;31.80;33.31;98206.72;4973371;28;20030;-73
2021/07/04 10:24:05;;;;;;;2.42;2.25;;;;;;;31.14;34.76;98216.03;4972916;28;20037;-70
2021/07/04 10:26:36;;;;;;;3.13;2.20;;;;;;;29.98;38.01;98212.69;4972888;28;20031;-71
2021/07/04 10:29:03;;;;;;;2.80;2.35;;;;;;;29.28;37.99;98211.13;4972819;28;20047;-71
2021/07/04 10:31:32;;;;;;;5.30;2.50;;;;;;;29.55;39.41;98198.59;4973128;28;20026;-71
2021/07/04 10:34:12;;;;;;;2.30;2.10;;;;;;;29.68;38.24;98202.44;4972755;28;20113;-71
2021/07/04 10:37:00;;;;;;;2.40;2.20;;;;;;;29.52;37.95;98206.88;4972503;28;20034;-71
2021/07/04 10:39:27;;;;;;;2.45;2.25;;;;;;;30.10;37.62;98201.53;4980584;28;20488;-71
2021/07/04 10:41:54;;;;;;;2.28;2.08;;;;;;;29.22;38.49;98201.09;4972742;28;20503;-70
2021/07/04 10:44:35;;;;;;;2.63;2.42;;;;;;;28.09;41.79;98201.88;4972614;28;20035;-70
2021/07/04 10:47:03;;;;;;;2.28;2.15;;;;;;;28.13;42.50;98208.59;4972119;28;20484;-70
2021/07/04 10:49:38;;;;;;;2.50;2.30;;;;;;;27.80;42.93;98207.44;4972607;28;20034;-70
2021/07/04 10:52:11;;;;;;;2.55;2.35;;;;;;;26.57;45.10;98215.59;4972541;28;20400;-70
2021/07/04 10:54:50;;;;;;;3.45;2.38;;;;;;;26.12;45.46;98209.00;4972296;28;20038;-69
2021/07/04 10:57:22;;;;;;;3.65;2.50;;;;;;;25.79;46.17;98218.19;4972173;28;20455;-70
2021/07/04 11:00:09;;;;;;;2.80;2.47;;;;;;;24.94;47.89;98201.78;4972191;28;20041;-70
2021/07/04 11:02:54;;;;;;;2.63;2.40;;;;;;;24.50;49.21;98206.41;4972394;28;20038;-72
2021/07/04 11:05:39;;;;;;;3.05;2.50;;;;;;;24.65;48.80;98194.53;4972328;28;20566;-71
2021/07/04 11:08:17;;;;;;;5.78;3.10;;;;;;;24.88;49.48;98180.16;4972210;28;20026;-72
2021/07/04 11:10:48;;;;;;;3.22;2.78;;;;;;;24.81;50.41;98179.00;4972351;28;20031;-72
2021/07/04 11:13:16;;;;;;;4.03;3.00;;;;;;;24.79;51.47;98182.75;4972041;28;20113;-72
2021/07/04 11:15:42;;;;;;;3.72;3.08;;;;;;;24.94;52.37;98193.84;4972140;28;20678;-72
2021/07/04 11:18:19;;;;;;;4.55;2.90;;;;;;;24.54;52.62;98186.66;4971731;28;20030;-72
2021/07/04 11:20:46;;;;;;;3.20;2.90;;;;;;;24.85;53.14;98175.13;4972000;28;20038;-72
2021/07/04 11:23:11;;;;;;;3.25;2.95;;;;;;;25.76;50.03;98180.47;4972209;28;20096;-72
2021/07/04 11:25:51;;;;;;;3.67;2.97;;;;;;;26.29;48.36;98170.25;4972208;28;20432;-72
2021/07/04 11:28:16;;;;;;;3.17;2.88;;;;;;;27.13;46.08;98166.91;4971996;28;20631;-72
2021/07/04 11:30:43;;;;;;;2.95;2.75;;;;;;;27.15;44.56;98159.59;4971827;28;20031;-73
2021/07/04 11:33:29;;;;;;;2.55;2.35;;;;;;;27.89;44.63;98143.44;4972031;28;20121;-72
2021/07/04 11:36:28;;;;;;;3.22;2.58;;;;;;;28.42;42.23;98129.25;4971889;28;20074;-72
2021/07/04 11:39:01;;;;;;;4.53;2.88;;;;;;;27.66;44.10;98134.22;4986826;28;20029;-72
2021/07/04 11:41:32;;;;;;;2.83;2.30;;;;;;;26.91;44.37;98126.34;4962708;28;20066;-72
2021/07/04 11:44:07;;;;;;;2.20;2.00;;;;;;;27.47;44.89;98116.56;4964041;28;20039;-71
2021/07/04 11:46:35;;;;;;;4.53;2.63;;;;;;;28.03;43.61;98111.94;4962892;28;20058;-70
2021/07/04 11:49:06;;;;;;;2.90;2.30;;;;;;;28.59;42.05;98105.38;4961376;28;20026;-72
2021/07/04 11:51:31;;;;;;;3.35;2.30;;;;;;;27.77;43.78;98102.06;4964526;28;20133;-72
2021/07/04 11:54:03;;;;;;;2.70;2.50;;;;;;;27.50;43.97;98104.78;4963724;28;20030;-71
2021/07/04 11:56:29;;;;;;;2.65;2.45;;;;;;;26.05;46.95;98106.97;4964414;28;20732;-71
2021/07/04 11:59:14;;;;;;;3.53;2.80;;;;;;;26.02;47.94;98106.44;4961336;28;20033;-70
2021/07/04 12:01:40;;;;;;;2.80;2.60;;;;;;;25.96;47.54;98101.66;4964509;28;20031;-71
2021/07/04 12:04:05;;;;;;;4.60;3.05;;;;;;;26.70;46.07;98091.19;4964248;28;20078;-72
2021/07/04 12:06:31;;;;;;;3.85;2.85;;;;;;;26.77;45.79;98091.44;4960270;28;20449;-72
2021/07/04 12:09:02;;;;;;;3.17;2.55;;;;;;;26.88;46.20;98078.81;4958334;28;20023;-72
2021/07/04 12:11:46;;;;;;;3.63;2.90;;;;;;;25.91;48.47;98082.69;4964354;28;20118;-72
2021/07/04 12:14:29;;;;;;;2.50;2.30;;;;;;;26.04;47.92;98069.94;4964122;28;20038;-72
2021/07/04 12:16:57;;;;;;;3.05;2.85;;;;;;;25.96;48.32;98072.47;4962452;28;20500;-72
2021/07/04 12:19:34;;;;;;;2.83;2.63;;;;;;;26.26;48.20;98082.91;4960138;28;20042;-72
2021/07/04 12:22:02;;;;;;;2.92;2.72;;;;;;;26.67;46.87;98080.84;4964189;28;21536;-72
2021/07/04 12:24:36;;;;;;;3.00;2.65;;;;;;;26.50;46.84;98085.13;4964249;28;20033;-72
2021/07/04 12:27:02;;;;;;;3.47;2.80;;;;;;;26.20;46.85;98091.44;4962483;28;20042;-72
2021/07/04 12:29:27;;;;;;;5.60;2.60;;;;;;;26.57;46.98;98085.38;4958883;28;20027;-72
2021/07/04 12:32:04;;;;;;;3.33;3.00;;;;;;;26.35;47.63;98092.69;4964046;28;20029;-72
2021/07/04 12:34:32;;;;;;;4.72;2.67;;;;;;;25.96;48.38;98091.06;4960091;28;20466;-72
2021/07/04 12:36:58;;;;;;;2.80;2.50;;;;;;;25.42;46.98;98087.09;4962453;28;20157;-72
2021/07/04 12:39:31;;;;;;;3.45;2.58;;;;;;;25.52;47.87;98087.97;4959933;28;20051;-72
2021/07/04 12:41:56;;;;;;;3.20;2.28;;;;;;;25.94;46.19;98087.72;4966850;28;20039;-72
2021/07/04 12:44:22;;;;;;;3.03;2.50;;;;;;;25.92;45.73;98084.34;4963316;28;20482;-74
2021/07/04 12:46:47;;;;;;;2.30;2.15;;;;;;;26.13;44.64;98093.00;4967220;28;20142;-75
2021/07/04 12:49:14;;;;;;;2.67;2.20;;;;;;;26.59;44.13;98083.38;4964247;28;20400;-74
2021/07/04 12:51:43;;;;;;;4.30;2.28;;;;;;;26.64;46.34;98083.78;4966261;28;20373;-75
2021/07/04 12:54:15;;;;;;;2.70;2.10;;;;;;;26.59;44.79;98078.06;4966550;28;20038;-71
2021/07/04 12:56:44;;;;;;;3.05;2.58;;;;;;;26.40;45.83;98079.81;4965874;28;20066;-71
2021/07/04 12:59:09;;;;;;;;;;;;;;;26.54;44.42;98080.31;4964022;28;20043;-72
2021/07/04 13:01:36;;;;;;;3.13;2.83;;;;;;;26.86;44.45;98072.78;4965809;28;19964;-72
2021/07/04 13:04:15;;;;;;;2.85;2.65;;;;;;;27.19;44.09;98078.53;4962220;28;20641;-74
2021/07/04 13:06:47;;;;;;;2.80;2.13;;;;;;;27.18;43.48;98071.53;4996160;28;20031;-73
2021/07/04 13:09:15;;;;;;;2.40;2.20;;;;;;;27.02;43.64;98069.47;4963512;28;20023;-71
2021/07/04 13:11:43;;;;;;;3.80;3.22;;;;;;;27.10;42.10;98063.44;4967062;28;20054;-71
2021/07/04 13:14:12;;;;;;;15.60;13.48;;;;;;;27.49;41.87;98055.19;4962182;28;20049;-71
2021/07/04 13:16:52;;;;;;;2.63;2.30;;;;;;;27.18;43.30;98055.56;4987394;23;20690;-70
2021/07/04 13:19:23;;;;;;;3.20;2.75;;;;;;;27.02;42.83;98058.00;5021022;28;20051;-71
2021/07/04 13:21:49;;;;;;;2.63;1.98;;;;;;;27.21;43.12;98062.41;5025615;28;20080;-72
2021/07/04 13:24:22;;;;;;;4.95;2.60;;;;;;;26.95;45.21;98057.78;5024300;28;20136;-71
2021/07/04 13:26:51;;;;;;;3.55;3.22;;;;;;;27.03;46.06;98049.03;5021479;28;20026;-71
2021/07/04 13:29:27;;;;;;;;;;;;;;;27.05;45.57;98047.91;5013895;28;20022;-71
2021/07/04 13:32:11;;;;;;;4.28;2.78;;;;;;;27.40;43.75;98040.97;5013217;28;20259;-71
2021/07/04 13:34:37;;;;;;;6.22;2.95;;;;;;;27.00;46.42;98047.53;5012943;28;20494;-71
2021/07/04 13:37:18;;;;;;;4.18;2.67;;;;;;;26.71;44.51;98054.81;5012808;28;20033;-71
2021/07/04 13:40:11;;;;;;;3.28;2.83;;;;;;;26.70;46.95;98048.66;5012878;28;20037;-71
2021/07/04 13:42:39;;;;;;;3.58;2.40;;;;;;;27.42;43.95;98049.66;5013496;28;20033;-71
2021/07/04 13:45:25;;;;;;;2.60;2.40;;;;;;;27.50;43.30;98046.22;5012931;28;20036;-70
2021/07/04 13:47:51;;;;;;;5.18;4.68;;;;;;;27.41;44.06;98040.84;5012972;28;20022;-70
2021/07/04 13:50:18;;;;;;;2.95;2.50;;;;;;;27.41;44.37;98047.97;5012900;28;20116;-70
2021/07/04 13:52:44;;;;;;;3.00;2.70;;;;;;;27.37;44.66;98058.09;5012705;28;20064;-70
2021/07/04 13:55:09;;;;;;;4.65;2.88;;;;;;;27.55;44.24;98055.41;5012760;28;20108;-69
2021/07/04 13:57:35;;;;;;;3.78;3.33;;;;;;;26.61;46.58;98052.19;5011155;28;20144;-70
2021/07/04 14:00:00;;;;;;;3.17;2.83;;;;;;;27.22;47.06;98059.56;5012720;28;20034;-69
2021/07/04 14:02:25;;;;;;;4.43;3.03;;;;;;;27.60;47.07;98055.78;5013051;28;20036;-70
2021/07/04 14:04:50;;;;;;;3.25;2.95;;;;;;;27.38;45.94;98049.13;5012735;28;20029;-70
2021/07/04 14:07:16;;;;;;;3.60;3.30;;;;;;;26.85;47.73;98047.19;5012222;28;20037;-70
2021/07/04 14:09:42;;;;;;;5.03;3.17;;;;;;;26.67;47.54;98043.63;5012553;28;20038;-70
2021/07/04 14:12:08;;;;;;;3.13;2.63;;;;;;;26.45;48.70;98038.69;5012342;28;20104;-70
2021/07/04 14:14:33;;;;;;;5.60;3.60;;;;;;;25.82;51.87;98037.44;5012529;28;20030;-70
2021/07/04 14:17:01;;;;;;;3.75;3.40;;;;;;;24.23;54.89;98050.69;5012005;28;20480;-70
2021/07/04 14:19:27;;;;;;;5.32;3.30;;;;;;;23.35;58.36;98049.16;5012356;28;20112;-69
2021/07/04 14:21:52;;;;;;;5.03;3.30;;;;;;;23.12;59.32;98056.34;5012237;28;20026;-69
2021/07/04 14:24:18;;;;;;;4.18;3.70;;;;;;;23.12;60.33;98059.00;5012449;28;20032;-69
2021/07/04 14:26:43;;;;;;;4.55;4.15;;;;;;;23.64;59.57;98065.31;5011843;28;20512;-69
2021/07/04 14:29:10;;;;;;;4.97;3.92;;;;;;;23.05;61.96;98076.28;5012028;28;20030;-70
2021/07/04 14:31:35;;;;;;;12.52;5.38;;;;;;;20.94;79.29;98094.88;5012218;28;20026;-69
2021/07/04 14:34:01;;;;;;;18.35;6.18;;;;;;;19.61;84.77;98098.69;5012087;28;20403;-69
2021/07/04 14:36:26;;;;;;;14.63;7.07;;;;;;;19.11;92.17;98090.47;5011733;28;20056;-69
2021/07/04 14:38:51;;;;;;;12.15;7.07;;;;;;;19.17;94.45;98082.19;5011839;28;20547;-70
2021/07/04 14:41:17;;;;;;;8.88;5.40;;;;;;;19.45;90.22;98088.31;5011832;28;20033;-70
2021/07/04 14:43:42;;;;;;;11.88;6.20;;;;;;;20.23;91.99;98089.22;5012054;28;20034;-70
2021/07/04 14:46:07;;;;;;;8.82;4.95;;;;;;;20.31;84.96;98091.34;5011737;28;20509;-71
2021/07/04 14:48:33;;;;;;;8.07;4.82;;;;;;;20.78;86.68;98084.56;5011422;28;20033;-70
2021/07/04 14:51:04;;;;;;;8.63;5.80;;;;;;;20.98;87.48;98091.03;5009538;28;20534;-70
2021/07/04 14:53:30;;;;;;;6.43;4.80;;;;;;;21.76;83.44;98093.28;5011692;28;20029;-71
2021/07/04 14:56:02;;;;;;;8.95;4.22;;;;;;;21.50;78.77;98092.56;5011480;28;20479;-82
2021/07/04 14:58:27;;;;;;;4.80;4.30;;;;;;;21.91;82.66;98091.31;5011716;28;20036;-72
2021/07/04 15:00:53;;;;;;;4.30;3.90;;;;;;;21.96;84.47;98091.78;5011486;28;20029;-72
2021/07/04 15:03:19;;;;;;;6.15;4.10;;;;;;;22.07;77.37;98097.09;5011033;28;20034;-73
2021/07/04 15:05:44;;;;;;;4.63;4.22;;;;;;;21.24;80.01;98092.66;5011050;28;20510;-73
2021/07/04 15:08:09;;;;;;;4.70;4.30;;;;;;;21.38;79.98;98093.50;5011328;28;20026;-73
2021/07/04 15:10:35;;;;;;;3.60;3.30;;;;;;;22.18;78.89;98094.50;5011167;28;20029;-73
2021/07/04 15:13:00;;;;;;;5.47;3.67;;;;;;;22.45;78.22;98096.00;5011274;28;20034;-72
2021/07/04 15:15:25;;;;;;;4.25;3.40;;;;;;;22.52;76.75;98102.47;5011454;28;20493;-71
2021/07/04 15:17:51;;;;;;;4.95;3.70;;;;;;;22.69;74.97;98099.38;5010847;28;20029;-71
2021/07/04 15:20:17;;;;;;;3.65;3.30;;;;;;;22.75;75.67;98109.44;5011024;28;20096;-71
2021/07/04 15:22:44;;;;;;;3.58;3.28;;;;;;;22.69;75.90;98104.66;5011174;28;20079;-71
2021/07/04 15:25:10;;;;;;;3.97;3.58;;;;;;;22.69;75.42;98104.66;5011257;28;20021;-71
2021/07/04 15:27:36;;;;;;;4.78;3.28;;;;;;;22.12;75.80;98108.16;5010743;28;20375;-71
2021/07/04 15:30:02;;;;;;;3.95;2.80;;;;;;;21.72;78.02;98119.03;5011085;28;20035;-71
2021/07/04 15:32:28;;;;;;;3.83;3.42;;;;;;;22.38;76.26;98116.72;5011037;28;20034;-71
2021/07/04 15:34:53;;;;;;;4.03;3.25;;;;;;;22.79;78.06;98116.16;5011021;28;20486;-71
2021/07/04 15:37:19;;;;;;;5.93;3.22;;;;;;;22.94;72.70;98123.88;5010967;28;20037;-72
2021/07/04 15:39:44;;;;;;;5.53;3.10;;;;;;;22.86;75.75;98120.97;5011059;28;20052;-71
2021/07/04 15:42:09;;;;;;;4.10;2.63;;;;;;;23.41;73.20;98117.44;5010931;28;20030;-71
2021/07/04 15:44:35;;;;;;;3.28;2.92;;;;;;;22.57;71.70;98116.16;5010722;28;20029;-71
2021/07/04 15:47:00;;;;;;;5.82;3.25;;;;;;;22.66;74.98;98120.72;5010774;28;20041;-71
2021/07/04 15:49:26;;;;;;;3.28;2.95;;;;;;;22.05;72.35;98120.97;5010708;28;20478;-71
2021/07/04 15:51:51;;;;;;;3.08;2.85;;;;;;;21.54;75.58;98130.94;5011079;28;20037;-71
2021/07/04 15:54:17;;;;;;;3.50;2.85;;;;;;;21.38;76.30;98125.94;5010810;28;20550;-72
2021/07/04 15:56:42;;;;;;;4.93;3.08;;;;;;;21.52;79.30;98124.94;5009501;28;20112;-71
2021/07/04 15:59:09;;;;;;;3.17;2.90;;;;;;;21.50;74.68;98124.19;5010641;28;20033;-72
2021/07/04 16:01:35;;;;;;;4.80;3.03;;;;;;;21.08;77.63;98118.44;5010783;28;20033;-71
2021/07/04 16:04:01;;;;;;;3.38;3.10;;;;;;;21.13;78.91;98121.59;5011215;28;20167;-73
2021/07/04 16:06:27;;;;;;;4.05;3.65;;;;;;;20.86;79.72;98123.53;5010934;28;20033;-73
2021/07/04 16:08:54;;;;;;;3.67;3.25;;;;;;;20.60;79.24;98128.84;5010806;28;20037;-72
2021/07/04 16:11:21;;;;;;;3.47;3.05;;;;;;;20.70;80.15;98140.41;5010426;28;20120;-72
2021/07/04 16:13:46;;;;;;;3.97;3.60;;;;;;;20.97;81.64;98131.50;5011111;28;20068;-72
2021/07/04 16:16:12;;;;;;;4.15;3.22;;;;;;;21.03;78.23;98136.34;5014111;28;20452;-72
2021/07/04 16:18:37;;;;;;;3.72;3.30;;;;;;;20.90;80.94;98135.53;5014414;28;20036;-72
2021/07/04 16:21:03;;;;;;;3.72;3.33;;;;;;;20.89;80.65;98144.41;5014710;28;20160;-72
2021/07/04 16:23:28;;;;;;;3.30;3.03;;;;;;;20.99;82.16;98150.69;5014586;28;20651;-72
2021/07/04 16:25:54;;;;;;;4.05;3.65;;;;;;;20.81;81.31;98157.25;5014569;28;20079;-72
2021/07/04 16:28:20;;;;;;;3.65;2.80;;;;;;;20.78;78.89;98163.56;5013942;28;20022;-72
2021/07/04 16:30:45;;;;;;;9.85;8.27;;;;;;;20.48;79.22;98171.78;5014347;28;20034;-72
2021/07/04 16:33:11;;;;;;;2.83;1.45;;;;;;;19.88;76.51;98193.31;5014353;28;20022;-72
2021/07/04 16:35:36;;;;;;;2.92;0.90;;;;;;;19.10;73.04;98206.97;5014238;28;20111;-71
2021/07/04 16:38:03;;;;;;;2.80;1.10;;;;;;;18.99;73.90;98204.13;5013503;28;20080;-71
2021/07/04 16:40:28;;;;;;;1.98;1.20;;;;;;;18.91;74.76;98214.28;5014292;28;20121;-72
2021/07/04 16:42:56;;;;;;;1.45;0.90;;;;;;;18.69;76.48;98210.31;5014081;28;20030;-72
2021/07/04 16:45:24;;;;;;;2.50;0.98;;;;;;;18.43;76.75;98229.38;5013906;28;20037;-72
2021/07/04 16:47:50;;;;;;;0.90;0.90;;;;;;;18.39;76.97;98230.47;5013841;28;20038;-71
2021/07/04 16:50:16;;;;;;;1.48;0.93;;;;;;;18.33;78.77;98241.34;5013767;28;20104;-71
2021/07/04 16:52:43;;;;;;;4.05;1.88;;;;;;;18.35;77.75;98242.09;5013993;28;20104;-71
2021/07/04 16:55:09;;;;;;;0.70;0.70;;;;;;;18.24;75.80;98254.03;5013930;28;20041;-72
2021/07/04 16:57:35;;;;;;;3.53;0.88;;;;;;;18.20;76.59;98257.78;5013375;28;20048;-72
2021/07/04 17:00:00;;;;;;;1.73;1.00;;;;;;;18.21;77.20;98269.94;5012862;28;20453;-72
2021/07/04 17:02:25;;;;;;;0.95;0.88;;;;;;;18.02;76.65;98263.22;5012663;28;20974;-73
2021/07/04 17:04:51;;;;;;;0.80;0.80;;;;;;;17.97;75.89;98260.84;5011986;28;20091;-73
2021/07/04 17:07:16;;;;;;;1.02;0.93;;;;;;;17.82;78.60;98257.31;5011700;28;20061;-73
2021/07/04 17:09:42;;;;;;;0.93;0.90;;;;;;;18.01;77.39;98262.38;5013678;28;20025;-72
2021/07/04 17:12:10;;;;;;;0.90;0.90;;;;;;;17.93;75.73;98260.16;5014122;28;20058;-72
2021/07/04 17:14:35;;;;;;;1.63;0.80;;;;;;;17.81;77.90;98260.03;5013585;28;20030;-71
2021/07/04 17:17:00;;;;;;;1.27;1.10;;;;;;;18.11;76.30;98268.78;5013060;28;20513;-71
2021/07/04 17:19:26;;;;;;;1.20;0.77;;;;;;;18.06;75.22;98270.81;5013676;28;20053;-72
2021/07/04 17:21:51;;;;;;;1.50;1.00;;;;;;;18.08;76.25;98279.44;5013576;28;20615;-72
2021/07/04 17:24:16;;;;;;;2.55;0.90;;;;;;;18.32;75.86;98286.84;5013495;28;20053;-71
2021/07/04 17:26:43;;;;;;;0.95;0.82;;;;;;;18.07;76.09;98292.63;5012822;28;20517;-70
2021/07/04 17:29:09;;;;;;;0.98;0.82;;;;;;;17.89;75.12;98289.25;5013288;28;20036;-70
2021/07/04 17:31:35;;;;;;;0.93;0.90;;;;;;;17.86;76.63;98294.69;5013454;28;20075;-70
2021/07/04 17:34:00;;;;;;;3.72;0.95;;;;;;;17.69;76.34;98304.25;5011783;28;20136;-70
2021/07/04 17:36:26;;;;;;;2.38;1.23;;;;;;;17.54;75.82;98299.88;5013010;28;20025;-70
2021/07/04 17:38:53;;;;;;;0.88;0.70;;;;;;;17.40;76.95;98302.38;5012639;28;20021;-70
2021/07/04 17:41:22;;;;;;;1.98;1.23;;;;;;;17.58;76.73;98311.88;5013036;28;20026;-70
2021/07/04 17:43:48;;;;;;;1.80;1.10;;;;;;;17.44;76.78;98309.16;5012612;28;20030;-71
2021/07/04 17:46:14;;;;;;;1.90;0.98;;;;;;;17.36;77.77;98319.22;5012425;28;21362;-70
2021/07/04 17:48:40;;;;;;;2.10;1.00;;;;;;;17.40;77.11;98318.09;5011780;28;20055;-70
2021/07/04 17:51:06;;;;;;;1.38;1.17;;;;;;;17.51;77.55;98321.00;5011237;28;20141;-70
2021/07/04 17:53:32;;;;;;;24.77;16.73;;;;;;;17.65;78.00;98326.34;5010546;28;20041;-70
2021/07/04 17:55:58;;;;;;;1.20;1.10;;;;;;;17.49;77.34;98328.06;5009220;28;20494;-70
2021/07/04 17:58:23;;;;;;;1.23;1.13;;;;;;;17.56;77.54;98329.47;5011261;28;20057;-70
2021/07/04 18:00:49;;;;;;;0.95;0.95;;;;;;;17.53;76.97;98337.47;5012260;28;20030;-70
2021/07/04 18:03:14;;;;;;;3.05;1.55;;;;;;;17.38;77.62;98335.66;5012920;28;20041;-70
2021/07/04 18:05:40;;;;;;;1.30;1.20;;;;;;;17.51;76.87;98341.97;5009385;28;20402;-70
2021/07/04 18:08:05;;;;;;;0.90;0.90;;;;;;;17.29;77.86;98330.91;5011235;28;20468;-70
2021/07/04 18:10:31;;;;;;;1.02;0.95;;;;;;;17.64;77.05;98335.13;5011617;28;20025;-71
2021/07/04 18:12:57;;;;;;;1.40;1.30;;;;;;;17.78;77.78;98338.81;5012456;28;20045;-71
2021/07/04 18:15:23;;;;;;;1.50;1.20;;;;;;;17.83;78.37;98336.78;5014472;28;20030;-71
2021/07/04 18:17:48;;;;;;;1.13;1.02;;;;;;;17.83;78.14;98342.03;5009222;28;20102;-71
2021/07/04 18:20:14;;;;;;;1.20;1.10;;;;;;;18.06;79.33;98346.00;5008160;28;20164;-71
2021/07/04 18:22:40;;;;;;;1.60;0.90;;;;;;;18.18;79.74;98348.81;5011828;28;20068;-71
2021/07/04 18:25:06;;;;;;;0.88;0.88;;;;;;;18.08;78.60;98347.59;5012420;28;20021;-71
2021/07/04 18:27:32;;;;;;;3.10;1.10;;;;;;;18.15;77.94;98353.38;5011123;28;20049;-71
2021/07/04 18:29:58;;;;;;;1.10;1.00;;;;;;;18.02;78.81;98350.56;5012298;28;20112;-71
2021/07/04 18:32:23;;;;;;;2.40;1.70;;;;;;;18.22;78.26;98350.31;5010287;28;20060;-71
2021/07/04 18:34:50;;;;;;;1.58;1.10;;;;;;;18.16;79.69;98355.91;5012111;28;20033;-71
2021/07/04 18:37:15;;;;;;;1.95;1.20;;;;;;;18.11;79.39;98352.69;5011932;28;20065;-72
2021/07/04 18:39:40;;;;;;;1.10;1.00;;;;;;;18.09;78.93;98354.56;5010361;28;20049;-72